sensor_id;sensor_type;location;lat;lon;timestamp;P1;durP1;ratioP1;P2;durP2;ratioP2
45322;SDS011;31382;50.200;8.674;2022-10-16T00:04:46;6.53;;;1.25;;
45322;SDS011;31382;50.200;8.674;2022-10-16T00:09:47;4.10;;;1.00;;
45322;SDS011;31382;50.200;8.674;2022-10-16T00:14:49;2.58;;;1.00;;
45322;SDS011;31382;50.200;8.674;2022-10-16T00:19:50;3.22;;;1.10;;
45322;SDS011;31382;50.200;8.674;2022-10-16T00:24:51;4.00;;;1.50;;
45322;SDS011;31382;50.200;8.674;2022-10-16T00:29:53;2.63;;;1.30;;
45322;SDS011;31382;50.200;8.674;2022-10-16T00:34:54;3.47;;;1.60;;
45322;SDS011;31382;50.200;8.674;2022-10-16T00:39:56;6.97;;;3.25;;
45322;SDS011;31382;50.200;8.674;2022-10-16T00:44:57;5.43;;;3.10;;
45322;SDS011;31382;50.200;8.674;2022-10-16T00:50:01;6.25;;;3.83;;
45322;SDS011;31382;50.200;8.674;2022-10-16T00:55:09;7.68;;;4.97;;
45322;SDS011;31382;50.200;8.674;2022-10-16T01:00:11;9.48;;;6.38;;
45322;SDS011;31382;50.200;8.674;2022-10-16T01:05:16;15.45;;;7.97;;
45322;SDS011;31382;50.200;8.674;2022-10-16T01:15:40;17.65;;;9.52;;
45322;SDS011;31382;50.200;8.674;2022-10-16T01:31:05;10.40;;;7.93;;
45322;SDS011;31382;50.200;8.674;2022-10-16T01:36:12;14.27;;;7.57;;
45322;SDS011;31382;50.200;8.674;2022-10-16T01:41:19;10.88;;;7.78;;
45322;SDS011;31382;50.200;8.674;2022-10-16T01:46:25;12.88;;;8.15;;
45322;SDS011;31382;50.200;8.674;2022-10-16T01:51:28;12.55;;;8.07;;
45322;SDS011;31382;50.200;8.674;2022-10-16T01:56:30;13.25;;;7.95;;
45322;SDS011;31382;50.200;8.674;2022-10-16T02:01:33;11.43;;;7.75;;
45322;SDS011;31382;50.200;8.674;2022-10-16T02:06:38;13.98;;;8.32;;
45322;SDS011;31382;50.200;8.674;2022-10-16T02:11:39;11.30;;;7.70;;
45322;SDS011;31382;50.200;8.674;2022-10-16T02:16:43;12.38;;;6.95;;
45322;SDS011;31382;50.200;8.674;2022-10-16T02:21:56;8.82;;;6.60;;
45322;SDS011;31382;50.200;8.674;2022-10-16T02:27:11;12.80;;;6.75;;
45322;SDS011;31382;50.200;8.674;2022-10-16T02:32:32;9.75;;;6.00;;
45322;SDS011;31382;50.200;8.674;2022-10-16T02:37:36;12.05;;;6.15;;
45322;SDS011;31382;50.200;8.674;2022-10-16T02:42:40;8.70;;;4.82;;
45322;SDS011;31382;50.200;8.674;2022-10-16T02:47:41;5.60;;;4.45;;
45322;SDS011;31382;50.200;8.674;2022-10-16T02:52:43;7.10;;;4.28;;
45322;SDS011;31382;50.200;8.674;2022-10-16T02:57:44;3.95;;;3.22;;
45322;SDS011;31382;50.200;8.674;2022-10-16T03:02:46;7.80;;;2.92;;
45322;SDS011;31382;50.200;8.674;2022-10-16T03:07:48;5.07;;;2.60;;
45322;SDS011;31382;50.200;8.674;2022-10-16T03:12:49;3.90;;;2.08;;
45322;SDS011;31382;50.200;8.674;2022-10-16T03:17:51;3.28;;;1.52;;
45322;SDS011;31382;50.200;8.674;2022-10-16T03:22:52;2.83;;;1.67;;
45322;SDS011;31382;50.200;8.674;2022-10-16T03:27:53;3.55;;;1.77;;
45322;SDS011;31382;50.200;8.674;2022-10-16T03:32:55;2.72;;;1.42;;
45322;SDS011;31382;50.200;8.674;2022-10-16T03:37:56;3.88;;;1.10;;
45322;SDS011;31382;50.200;8.674;2022-10-16T03:42:58;8.55;;;1.60;;
45322;SDS011;31382;50.200;8.674;2022-10-16T03:47:59;1.98;;;1.25;;
45322;SDS011;31382;50.200;8.674;2022-10-16T03:53:01;6.68;;;1.10;;
45322;SDS011;31382;50.200;8.674;2022-10-16T03:58:02;5.30;;;1.60;;
45322;SDS011;31382;50.200;8.674;2022-10-16T04:03:03;3.47;;;1.10;;
45322;SDS011;31382;50.200;8.674;2022-10-16T04:08:05;3.13;;;1.00;;
45322;SDS011;31382;50.200;8.674;2022-10-16T04:13:07;5.18;;;0.80;;
45322;SDS011;31382;50.200;8.674;2022-10-16T04:18:08;4.88;;;1.05;;
45322;SDS011;31382;50.200;8.674;2022-10-16T04:23:10;3.35;;;1.48;;
45322;SDS011;31382;50.200;8.674;2022-10-16T04:28:11;1.90;;;0.90;;
45322;SDS011;31382;50.200;8.674;2022-10-16T04:33:12;2.65;;;0.98;;
45322;SDS011;31382;50.200;8.674;2022-10-16T04:38:14;2.42;;;0.98;;
45322;SDS011;31382;50.200;8.674;2022-10-16T04:43:15;5.07;;;1.05;;
45322;SDS011;31382;50.200;8.674;2022-10-16T04:48:17;2.33;;;0.98;;
45322;SDS011;31382;50.200;8.674;2022-10-16T04:53:19;4.68;;;1.58;;
45322;SDS011;31382;50.200;8.674;2022-10-16T04:58:20;3.25;;;1.50;;
45322;SDS011;31382;50.200;8.674;2022-10-16T05:03:22;2.92;;;1.40;;
45322;SDS011;31382;50.200;8.674;2022-10-16T05:08:23;1.13;;;0.82;;
45322;SDS011;31382;50.200;8.674;2022-10-16T05:13:24;3.08;;;1.20;;
45322;SDS011;31382;50.200;8.674;2022-10-16T05:18:26;1.67;;;1.30;;
45322;SDS011;31382;50.200;8.674;2022-10-16T05:23:27;3.92;;;1.17;;
45322;SDS011;31382;50.200;8.674;2022-10-16T05:28:29;2.58;;;1.08;;
45322;SDS011;31382;50.200;8.674;2022-10-16T05:33:31;4.35;;;1.13;;
45322;SDS011;31382;50.200;8.674;2022-10-16T05:38:33;6.55;;;3.15;;
45322;SDS011;31382;50.200;8.674;2022-10-16T05:43:35;4.78;;;2.58;;
45322;SDS011;31382;50.200;8.674;2022-10-16T05:48:36;3.63;;;2.83;;
45322;SDS011;31382;50.200;8.674;2022-10-16T05:53:38;3.85;;;2.38;;
45322;SDS011;31382;50.200;8.674;2022-10-16T05:58:40;6.55;;;2.03;;
45322;SDS011;31382;50.200;8.674;2022-10-16T06:03:42;4.55;;;1.65;;
45322;SDS011;31382;50.200;8.674;2022-10-16T06:08:45;2.95;;;1.73;;
45322;SDS011;31382;50.200;8.674;2022-10-16T06:13:50;4.57;;;1.40;;
45322;SDS011;31382;50.200;8.674;2022-10-16T06:18:54;5.18;;;1.20;;
45322;SDS011;31382;50.200;8.674;2022-10-16T06:24:00;1.13;;;0.97;;
45322;SDS011;31382;50.200;8.674;2022-10-16T06:29:02;5.40;;;1.73;;
45322;SDS011;31382;50.200;8.674;2022-10-16T06:34:03;3.53;;;1.10;;
45322;SDS011;31382;50.200;8.674;2022-10-16T06:39:07;2.20;;;1.00;;
45322;SDS011;31382;50.200;8.674;2022-10-16T06:44:08;2.65;;;1.08;;
45322;SDS011;31382;50.200;8.674;2022-10-16T06:49:10;3.42;;;1.27;;
45322;SDS011;31382;50.200;8.674;2022-10-16T06:54:11;3.50;;;2.28;;
45322;SDS011;31382;50.200;8.674;2022-10-16T06:59:12;7.55;;;4.85;;
45322;SDS011;31382;50.200;8.674;2022-10-16T07:04:14;6.13;;;3.17;;
45322;SDS011;31382;50.200;8.674;2022-10-16T07:09:15;11.10;;;6.57;;
45322;SDS011;31382;50.200;8.674;2022-10-16T07:14:18;10.32;;;5.18;;
45322;SDS011;31382;50.200;8.674;2022-10-16T07:19:21;3.53;;;1.63;;
45322;SDS011;31382;50.200;8.674;2022-10-16T07:24:23;2.60;;;1.55;;
45322;SDS011;31382;50.200;8.674;2022-10-16T07:29:24;5.45;;;1.38;;
45322;SDS011;31382;50.200;8.674;2022-10-16T07:34:25;2.30;;;1.40;;
45322;SDS011;31382;50.200;8.674;2022-10-16T07:39:27;2.42;;;1.00;;
45322;SDS011;31382;50.200;8.674;2022-10-16T07:44:29;2.00;;;1.20;;
45322;SDS011;31382;50.200;8.674;2022-10-16T07:49:31;4.88;;;1.20;;
45322;SDS011;31382;50.200;8.674;2022-10-16T07:54:32;4.65;;;1.50;;
45322;SDS011;31382;50.200;8.674;2022-10-16T07:59:34;4.40;;;1.42;;
45322;SDS011;31382;50.200;8.674;2022-10-16T08:04:35;4.55;;;1.70;;
45322;SDS011;31382;50.200;8.674;2022-10-16T08:09:37;2.50;;;2.10;;
45322;SDS011;31382;50.200;8.674;2022-10-16T08:14:38;2.55;;;1.55;;
45322;SDS011;31382;50.200;8.674;2022-10-16T08:19:46;4.47;;;1.95;;
45322;SDS011;31382;50.200;8.674;2022-10-16T08:24:48;4.13;;;2.58;;
45322;SDS011;31382;50.200;8.674;2022-10-16T08:29:49;3.33;;;2.03;;
45322;SDS011;31382;50.200;8.674;2022-10-16T08:34:51;5.10;;;2.35;;
45322;SDS011;31382;50.200;8.674;2022-10-16T08:39:52;6.32;;;3.17;;
45322;SDS011;31382;50.200;8.674;2022-10-16T08:50:25;6.82;;;3.50;;
45322;SDS011;31382;50.200;8.674;2022-10-16T08:55:30;6.80;;;4.40;;
45322;SDS011;31382;50.200;8.674;2022-10-16T09:00:38;8.57;;;5.93;;
45322;SDS011;31382;50.200;8.674;2022-10-16T09:05:49;9.35;;;5.97;;
45322;SDS011;31382;50.200;8.674;2022-10-16T09:10:59;8.50;;;4.65;;
45322;SDS011;31382;50.200;8.674;2022-10-16T09:21:39;7.10;;;4.15;;
45322;SDS011;31382;50.200;8.674;2022-10-16T09:26:43;3.97;;;3.10;;
45322;SDS011;31382;50.200;8.674;2022-10-16T09:31:45;6.13;;;3.95;;
45322;SDS011;31382;50.200;8.674;2022-10-16T09:36:47;5.95;;;3.92;;
45322;SDS011;31382;50.200;8.674;2022-10-16T09:41:49;4.50;;;3.28;;
45322;SDS011;31382;50.200;8.674;2022-10-16T09:47:00;7.20;;;4.22;;
45322;SDS011;31382;50.200;8.674;2022-10-16T09:52:11;10.00;;;5.35;;
45322;SDS011;31382;50.200;8.674;2022-10-16T09:57:14;7.07;;;3.40;;
45322;SDS011;31382;50.200;8.674;2022-10-16T10:02:17;8.68;;;3.28;;
45322;SDS011;31382;50.200;8.674;2022-10-16T10:07:31;3.95;;;3.05;;
45322;SDS011;31382;50.200;8.674;2022-10-16T10:12:35;2.75;;;2.55;;
45322;SDS011;31382;50.200;8.674;2022-10-16T10:17:50;3.70;;;2.53;;
45322;SDS011;31382;50.200;8.674;2022-10-16T10:28:14;3.45;;;1.73;;
45322;SDS011;31382;50.200;8.674;2022-10-16T10:38:53;1.90;;;0.90;;
45322;SDS011;31382;50.200;8.674;2022-10-16T10:54:39;2.20;;;0.70;;
45322;SDS011;31382;50.200;8.674;2022-10-16T11:00:00;1.55;;;0.85;;
45322;SDS011;31382;50.200;8.674;2022-10-16T11:10:46;3.40;;;0.63;;
45322;SDS011;31382;50.200;8.674;2022-10-16T11:15:53;2.05;;;0.30;;
45322;SDS011;31382;50.200;8.674;2022-10-16T11:21:00;0.47;;;0.30;;
45322;SDS011;31382;50.200;8.674;2022-10-16T11:26:09;1.95;;;0.70;;
45322;SDS011;31382;50.200;8.674;2022-10-16T11:36:42;1.05;;;0.70;;
45322;SDS011;31382;50.200;8.674;2022-10-16T11:41:53;1.33;;;1.07;;
45322;SDS011;31382;50.200;8.674;2022-10-16T11:58:04;4.47;;;2.03;;
45322;SDS011;31382;50.200;8.674;2022-10-16T12:03:12;3.53;;;3.23;;
45322;SDS011;31382;50.200;8.674;2022-10-16T12:08:35;4.32;;;3.92;;
45322;SDS011;31382;50.200;8.674;2022-10-16T12:13:39;4.97;;;2.30;;
45322;SDS011;31382;50.200;8.674;2022-10-16T12:18:43;4.18;;;3.67;;
45322;SDS011;31382;50.200;8.674;2022-10-16T12:23:50;3.53;;;2.97;;
45322;SDS011;31382;50.200;8.674;2022-10-16T12:28:54;3.00;;;2.05;;
45322;SDS011;31382;50.200;8.674;2022-10-16T12:33:57;3.13;;;2.17;;
45322;SDS011;31382;50.200;8.674;2022-10-16T12:39:02;2.38;;;2.17;;
45322;SDS011;31382;50.200;8.674;2022-10-16T12:44:04;2.00;;;1.40;;
45322;SDS011;31382;50.200;8.674;2022-10-16T12:54:46;1.85;;;0.85;;
45322;SDS011;31382;50.200;8.674;2022-10-16T13:00:00;2.15;;;1.30;;
45322;SDS011;31382;50.200;8.674;2022-10-16T13:15:37;1.00;;;0.70;;
45322;SDS011;31382;50.200;8.674;2022-10-16T13:20:55;1.05;;;0.50;;
45322;SDS011;31382;50.200;8.674;2022-10-16T13:26:21;0.88;;;0.50;;
45322;SDS011;31382;50.200;8.674;2022-10-16T13:31:32;0.63;;;0.43;;
45322;SDS011;31382;50.200;8.674;2022-10-16T13:36:42;0.52;;;0.50;;
45322;SDS011;31382;50.200;8.674;2022-10-16T13:47:28;2.63;;;0.50;;
45322;SDS011;31382;50.200;8.674;2022-10-16T13:52:31;0.82;;;0.47;;
45322;SDS011;31382;50.200;8.674;2022-10-16T13:57:33;1.65;;;0.40;;
45322;SDS011;31382;50.200;8.674;2022-10-16T14:02:35;1.25;;;0.50;;
45322;SDS011;31382;50.200;8.674;2022-10-16T14:07:40;1.35;;;0.60;;
45322;SDS011;31382;50.200;8.674;2022-10-16T14:12:43;2.25;;;0.60;;
45322;SDS011;31382;50.200;8.674;2022-10-16T14:17:45;1.00;;;0.60;;
45322;SDS011;31382;50.200;8.674;2022-10-16T14:28:05;1.60;;;0.70;;
45322;SDS011;31382;50.200;8.674;2022-10-16T14:33:21;2.40;;;0.80;;
45322;SDS011;31382;50.200;8.674;2022-10-16T14:38:22;3.80;;;1.75;;
45322;SDS011;31382;50.200;8.674;2022-10-16T14:43:49;3.47;;;1.10;;
45322;SDS011;31382;50.200;8.674;2022-10-16T14:48:54;1.30;;;0.60;;
45322;SDS011;31382;50.200;8.674;2022-10-16T14:54:01;1.40;;;0.80;;
45322;SDS011;31382;50.200;8.674;2022-10-16T14:59:03;1.40;;;0.80;;
45322;SDS011;31382;50.200;8.674;2022-10-16T15:04:04;3.22;;;0.93;;
45322;SDS011;31382;50.200;8.674;2022-10-16T15:09:06;1.13;;;0.93;;
45322;SDS011;31382;50.200;8.674;2022-10-16T15:14:13;4.35;;;0.95;;
45322;SDS011;31382;50.200;8.674;2022-10-16T15:19:19;0.68;;;0.50;;
45322;SDS011;31382;50.200;8.674;2022-10-16T15:24:21;1.63;;;0.80;;
45322;SDS011;31382;50.200;8.674;2022-10-16T15:29:22;1.85;;;0.60;;
45322;SDS011;31382;50.200;8.674;2022-10-16T15:34:23;1.10;;;0.80;;
45322;SDS011;31382;50.200;8.674;2022-10-16T15:39:25;3.83;;;0.95;;
45322;SDS011;31382;50.200;8.674;2022-10-16T15:44:26;1.00;;;0.77;;
45322;SDS011;31382;50.200;8.674;2022-10-16T15:49:31;2.25;;;0.80;;
45322;SDS011;31382;50.200;8.674;2022-10-16T15:54:32;1.00;;;0.60;;
45322;SDS011;31382;50.200;8.674;2022-10-16T15:59:33;2.97;;;1.13;;
45322;SDS011;31382;50.200;8.674;2022-10-16T16:04:35;1.95;;;0.85;;
45322;SDS011;31382;50.200;8.674;2022-10-16T16:09:44;2.15;;;1.65;;
45322;SDS011;31382;50.200;8.674;2022-10-16T16:14:46;4.07;;;1.83;;
45322;SDS011;31382;50.200;8.674;2022-10-16T16:19:50;3.92;;;1.95;;
45322;SDS011;31382;50.200;8.674;2022-10-16T16:24:52;4.15;;;1.73;;
45322;SDS011;31382;50.200;8.674;2022-10-16T16:29:53;10.85;;;4.18;;
45322;SDS011;31382;50.200;8.674;2022-10-16T16:34:56;11.82;;;5.10;;
45322;SDS011;31382;50.200;8.674;2022-10-16T16:39:57;5.47;;;3.40;;
45322;SDS011;31382;50.200;8.674;2022-10-16T16:45:02;3.92;;;2.55;;
45322;SDS011;31382;50.200;8.674;2022-10-16T16:50:03;2.42;;;1.90;;
45322;SDS011;31382;50.200;8.674;2022-10-16T16:55:06;3.10;;;2.10;;
45322;SDS011;31382;50.200;8.674;2022-10-16T17:00:08;4.18;;;2.10;;
45322;SDS011;31382;50.200;8.674;2022-10-16T17:05:09;4.25;;;2.58;;
45322;SDS011;31382;50.200;8.674;2022-10-16T17:10:11;4.75;;;3.75;;
45322;SDS011;31382;50.200;8.674;2022-10-16T17:15:12;3.72;;;3.28;;
45322;SDS011;31382;50.200;8.674;2022-10-16T17:20:14;5.07;;;3.50;;
45322;SDS011;31382;50.200;8.674;2022-10-16T17:25:15;4.85;;;3.30;;
45322;SDS011;31382;50.200;8.674;2022-10-16T17:30:18;7.78;;;3.83;;
45322;SDS011;31382;50.200;8.674;2022-10-16T17:35:19;13.95;;;8.45;;
45322;SDS011;31382;50.200;8.674;2022-10-16T17:40:20;6.50;;;4.15;;
45322;SDS011;31382;50.200;8.674;2022-10-16T17:45:22;4.10;;;3.65;;
45322;SDS011;31382;50.200;8.674;2022-10-16T17:50:23;8.40;;;4.32;;
45322;SDS011;31382;50.200;8.674;2022-10-16T17:55:25;8.90;;;5.07;;
45322;SDS011;31382;50.200;8.674;2022-10-16T18:00:27;6.50;;;5.05;;
45322;SDS011;31382;50.200;8.674;2022-10-16T18:05:29;5.18;;;4.32;;
45322;SDS011;31382;50.200;8.674;2022-10-16T18:10:30;8.30;;;4.65;;
45322;SDS011;31382;50.200;8.674;2022-10-16T18:15:31;11.93;;;5.55;;
45322;SDS011;31382;50.200;8.674;2022-10-16T18:20:33;8.98;;;5.55;;
45322;SDS011;31382;50.200;8.674;2022-10-16T18:25:34;15.35;;;7.72;;
45322;SDS011;31382;50.200;8.674;2022-10-16T18:30:35;12.75;;;7.25;;
45322;SDS011;31382;50.200;8.674;2022-10-16T18:35:37;16.73;;;9.13;;
45322;SDS011;31382;50.200;8.674;2022-10-16T18:40:38;24.92;;;10.90;;
45322;SDS011;31382;50.200;8.674;2022-10-16T18:45:40;39.50;;;16.35;;
45322;SDS011;31382;50.200;8.674;2022-10-16T18:50:41;40.10;;;15.73;;
45322;SDS011;31382;50.200;8.674;2022-10-16T18:55:49;20.30;;;10.32;;
45322;SDS011;31382;50.200;8.674;2022-10-16T19:00:52;38.22;;;16.38;;
45322;SDS011;31382;50.200;8.674;2022-10-16T19:05:53;28.65;;;13.25;;
45322;SDS011;31382;50.200;8.674;2022-10-16T19:10:55;25.45;;;12.50;;
45322;SDS011;31382;50.200;8.674;2022-10-16T19:15:56;26.35;;;13.38;;
45322;SDS011;31382;50.200;8.674;2022-10-16T19:21:04;19.50;;;12.40;;
45322;SDS011;31382;50.200;8.674;2022-10-16T19:26:13;24.23;;;13.35;;
45322;SDS011;31382;50.200;8.674;2022-10-16T19:31:17;20.55;;;11.07;;
45322;SDS011;31382;50.200;8.674;2022-10-16T19:36:21;25.23;;;11.55;;
45322;SDS011;31382;50.200;8.674;2022-10-16T19:41:25;17.17;;;9.85;;
45322;SDS011;31382;50.200;8.674;2022-10-16T19:46:29;16.90;;;9.75;;
45322;SDS011;31382;50.200;8.674;2022-10-16T19:51:31;15.18;;;7.80;;
45322;SDS011;31382;50.200;8.674;2022-10-16T19:56:33;11.02;;;7.28;;
45322;SDS011;31382;50.200;8.674;2022-10-16T20:01:36;12.57;;;7.25;;
45322;SDS011;31382;50.200;8.674;2022-10-16T20:06:37;15.27;;;7.10;;
45322;SDS011;31382;50.200;8.674;2022-10-16T20:11:41;12.23;;;7.32;;
45322;SDS011;31382;50.200;8.674;2022-10-16T20:16:42;14.70;;;8.55;;
45322;SDS011;31382;50.200;8.674;2022-10-16T20:21:44;14.38;;;8.90;;
45322;SDS011;31382;50.200;8.674;2022-10-16T20:26:45;13.27;;;7.13;;
45322;SDS011;31382;50.200;8.674;2022-10-16T20:31:46;14.25;;;7.05;;
45322;SDS011;31382;50.200;8.674;2022-10-16T20:36:48;11.95;;;6.75;;
45322;SDS011;31382;50.200;8.674;2022-10-16T20:41:50;15.05;;;9.52;;
45322;SDS011;31382;50.200;8.674;2022-10-16T20:46:53;12.15;;;7.35;;
45322;SDS011;31382;50.200;8.674;2022-10-16T20:51:55;13.02;;;7.30;;
45322;SDS011;31382;50.200;8.674;2022-10-16T20:56:57;20.25;;;11.52;;
45322;SDS011;31382;50.200;8.674;2022-10-16T21:01:58;16.30;;;10.35;;
45322;SDS011;31382;50.200;8.674;2022-10-16T21:07:00;15.27;;;9.05;;
45322;SDS011;31382;50.200;8.674;2022-10-16T21:12:01;17.00;;;9.45;;
45322;SDS011;31382;50.200;8.674;2022-10-16T21:17:03;16.63;;;10.57;;
45322;SDS011;31382;50.200;8.674;2022-10-16T21:22:04;15.60;;;9.50;;
45322;SDS011;31382;50.200;8.674;2022-10-16T21:27:06;16.63;;;9.95;;
45322;SDS011;31382;50.200;8.674;2022-10-16T21:32:07;18.88;;;10.23;;
45322;SDS011;31382;50.200;8.674;2022-10-16T21:37:09;12.05;;;8.63;;
45322;SDS011;31382;50.200;8.674;2022-10-16T21:42:10;17.25;;;8.52;;
45322;SDS011;31382;50.200;8.674;2022-10-16T21:47:11;9.85;;;7.22;;
45322;SDS011;31382;50.200;8.674;2022-10-16T21:52:13;11.32;;;7.25;;
45322;SDS011;31382;50.200;8.674;2022-10-16T21:57:14;12.30;;;7.82;;
45322;SDS011;31382;50.200;8.674;2022-10-16T22:02:16;13.30;;;7.35;;
45322;SDS011;31382;50.200;8.674;2022-10-16T22:07:17;12.70;;;7.85;;
45322;SDS011;31382;50.200;8.674;2022-10-16T22:12:19;12.20;;;7.22;;
45322;SDS011;31382;50.200;8.674;2022-10-16T22:17:21;13.13;;;7.32;;
45322;SDS011;31382;50.200;8.674;2022-10-16T22:22:22;14.18;;;7.68;;
45322;SDS011;31382;50.200;8.674;2022-10-16T22:27:23;10.25;;;7.63;;
45322;SDS011;31382;50.200;8.674;2022-10-16T22:32:25;17.00;;;7.53;;
45322;SDS011;31382;50.200;8.674;2022-10-16T22:37:27;10.60;;;7.63;;
45322;SDS011;31382;50.200;8.674;2022-10-16T22:42:29;10.50;;;6.57;;
45322;SDS011;31382;50.200;8.674;2022-10-16T22:47:30;10.88;;;6.72;;
45322;SDS011;31382;50.200;8.674;2022-10-16T22:52:31;11.25;;;7.05;;
45322;SDS011;31382;50.200;8.674;2022-10-16T22:57:33;9.57;;;6.22;;
45322;SDS011;31382;50.200;8.674;2022-10-16T23:02:34;11.57;;;6.28;;
45322;SDS011;31382;50.200;8.674;2022-10-16T23:07:36;10.60;;;6.32;;
45322;SDS011;31382;50.200;8.674;2022-10-16T23:12:38;15.02;;;6.38;;
45322;SDS011;31382;50.200;8.674;2022-10-16T23:17:39;13.15;;;5.53;;
45322;SDS011;31382;50.200;8.674;2022-10-16T23:22:40;10.68;;;4.75;;
45322;SDS011;31382;50.200;8.674;2022-10-16T23:27:42;7.30;;;5.00;;
45322;SDS011;31382;50.200;8.674;2022-10-16T23:32:43;9.95;;;5.15;;
45322;SDS011;31382;50.200;8.674;2022-10-16T23:37:45;7.22;;;5.22;;
45322;SDS011;31382;50.200;8.674;2022-10-16T23:42:46;8.60;;;4.75;;
45322;SDS011;31382;50.200;8.674;2022-10-16T23:47:47;8.20;;;4.80;;
45322;SDS011;31382;50.200;8.674;2022-10-16T23:52:49;8.40;;;4.25;;
45322;SDS011;31382;50.200;8.674;2022-10-16T23:57:50;9.40;;;4.13;;
